Time;durP1;ratioP1;P1;durP2;ratioP2;P2;SDS_P1;SDS_P2;PMS_P1;PMS_P2;Temp;Humidity;BMP_temperature;BMP_pressure;BME280_temperature;BME280_humidity;BME280_pressure;Samples;Min_cycle;Max_cycle;Signal;HPM_P1;HPM_P2
2023/04/15 00:01:36;;;;;;;;;;;;;;;4.62;69.42;95506.78;5093861;28;19943;-70
2023/04/15 00:04:01;;;;;;;;;;;;;;;4.59;70.24;95504.59;5095007;28;20382;-71
2023/04/15 00:06:27;;;;;;;;;;;;;;;4.55;70.14;95502.59;5095842;28;19941;-70
2023/04/15 00:08:53;;;;;;;;;;;;;;;4.51;70.26;95504.81;5094907;28;19939;-70
2023/04/15 00:11:19;;;;;;;;;;;;;;;4.46;69.99;95496.84;5094708;28;19968;-70
2023/04/15 00:13:45;;;;;;;;;;;;;;;4.44;70.47;95501.44;5094889;28;20050;-70
2023/04/15 00:16:11;;;;;;;;;;;;;;;4.40;70.76;95502.84;5094826;28;19952;-68
2023/04/15 00:18:37;;;;;;;;;;;;;;;4.36;70.79;95501.63;5094852;28;19976;-73
2023/04/15 00:21:03;;;;;;;;;;;;;;;4.33;70.75;95500.25;5094964;28;19981;-72
2023/04/15 00:23:30;;;;;;;;;;;;;;;4.29;70.64;95499.06;5094753;28;19944;-72
2023/04/15 00:25:56;;;;;;;;;;;;;;;4.26;71.13;95500.25;5094685;28;19951;-75
2023/04/15 00:28:22;;;;;;;;;;;;;;;4.24;71.58;95506.63;5094674;28;19940;-73
2023/04/15 00:30:47;;;;;;;;;;;;;;;4.20;71.36;95501.06;5094349;28;20437;-73
2023/04/15 00:33:15;;;;;;;;;;;;;;;4.17;71.15;95498.06;5094608;28;19938;-71
2023/04/15 00:35:41;;;;;;;;;;;;;;;4.14;71.56;95493.28;5094448;28;19947;-72
2023/04/15 00:38:07;;;;;;;;;;;;;;;4.12;71.84;95492.69;5094450;28;19947;-73
2023/04/15 00:40:33;;;;;;;;;;;;;;;4.09;71.22;95486.09;5092748;28;20386;-73
2023/04/15 00:42:59;;;;;;;;;;;;;;;4.05;71.90;95496.09;5094891;28;19941;-73
2023/04/15 00:45:25;;;;;;;;;;;;;;;4.03;72.16;95494.66;5094400;28;19944;-73
2023/04/15 00:47:51;;;;;;;;;;;;;;;3.99;72.53;95496.88;5094868;28;20395;-73
2023/04/15 00:50:17;;;;;;;;;;;;;;;3.99;72.25;95504.66;5094260;28;19986;-79
2023/04/15 00:52:42;;;;;;;;;;;;;;;3.96;72.20;95496.47;5093012;28;20327;-72
2023/04/15 00:55:10;;;;;;;;;;;;;;;3.93;72.89;95496.88;5094931;28;19940;-73
2023/04/15 00:57:36;;;;;;;;;;;;;;;3.90;73.01;95505.06;5094167;28;20384;-74
2023/04/15 01:00:03;;;;;;;;;;;;;;;3.89;72.56;95499.06;5094033;28;19939;-73
2023/04/15 01:02:30;;;;;;;;;;;;;;;3.88;71.91;95494.06;5092738;28;19947;-73
2023/04/15 01:04:56;;;;;;;;;;;;;;;3.86;72.36;95502.88;5094005;28;19939;-73
2023/04/15 01:07:22;;;;;;;;;;;;;;;3.84;72.20;95497.09;5094216;28;19939;-73
2023/04/15 01:09:48;;;;;;;;;;;;;;;3.83;72.32;95502.47;5093927;28;20028;-71
2023/04/15 01:12:15;;;;;;;;;;;;;;;3.82;71.92;95501.66;5093740;28;19996;-72
2023/04/15 01:14:41;;;;;;;;;;;;;;;3.81;72.94;95507.03;5093917;28;19947;-72
2023/04/15 01:17:07;;;;;;;;;;;;;;;3.77;72.88;95501.44;5093826;28;19937;-71
2023/04/15 01:19:35;;;;;;;;;;;;;;;3.75;73.04;95503.44;5093896;28;20299;-71
2023/04/15 01:22:02;;;;;;;;;;;;;;;3.69;72.44;95501.63;5093844;28;19941;-73
2023/04/15 01:24:29;;;;;;;;;;;;;;;3.66;73.25;95508.03;5093795;28;19937;-72
2023/04/15 01:26:55;;;;;;;;;;;;;;;3.61;73.58;95500.06;5093760;28;19953;-72
2023/04/15 01:29:22;;;;;;;;;;;;;;;3.59;73.71;95509.00;5094125;28;20386;-68
2023/04/15 01:31:49;;;;;;;;;;;;;;;3.59;73.41;95509.00;5092569;28;19967;-70
2023/04/15 01:34:33;;;;;;;;;;;;;;;3.55;73.69;95505.19;5094266;28;19956;-70
2023/04/15 01:37:18;;;;;;;;;;;;;;;3.52;73.75;95511.56;5093881;28;20442;-70
2023/04/15 01:39:44;;;;;;;;;;;;;;;3.49;73.72;95503.41;5093592;28;19943;-70
2023/04/15 01:42:10;;;;;;;;;;;;;;;3.44;74.65;95507.41;5093478;28;20390;-70
2023/04/15 01:44:37;;;;;;;;;;;;;;;3.42;74.66;95508.56;5093152;28;19968;-70
2023/04/15 01:47:05;;;;;;;;;;;;;;;3.38;74.65;95503.00;5092719;28;19946;-72
2023/04/15 01:49:33;;;;;;;;;;;;;;;3.35;74.65;95503.38;5093090;28;19949;-80
2023/04/15 01:52:00;;;;;;;;;;;;;;;3.34;74.23;95495.78;5095020;28;19960;-81
2023/04/15 01:54:27;;;;;;;;;;;;;;;3.31;74.71;95501.38;5097667;28;20389;-80
2023/04/15 01:56:55;;;;;;;;;;;;;;;3.28;75.01;95502.56;5097224;28;19938;-80
2023/04/15 01:59:22;;;;;;;;;;;;;;;3.24;75.05;95494.38;5097142;28;20429;-80
2023/04/15 02:01:49;;;;;;;;;;;;;;;3.23;74.96;95492.78;5097738;28;19949;-80
2023/04/15 02:04:16;;;;;;;;;;;;;;;3.20;74.94;95484.59;5096981;28;19941;-73
2023/04/15 02:06:44;;;;;;;;;;;;;;;3.17;74.60;95483.22;5097261;28;19942;-69
2023/04/15 02:09:11;;;;;;;;;;;;;;;3.15;74.96;95486.97;5096670;28;19944;-80
2023/04/15 02:11:38;;;;;;;;;;;;;;;3.14;74.95;95487.97;5097482;28;19957;-80
2023/04/15 02:14:05;;;;;;;;;;;;;;;3.15;74.99;95492.16;5096683;28;19951;-81
2023/04/15 02:16:33;;;;;;;;;;;;;;;3.15;75.63;95492.97;5097438;28;19953;-81
2023/04/15 02:19:00;;;;;;;;;;;;;;;3.13;76.97;95500.13;5096713;28;19937;-81
2023/04/15 02:21:28;;;;;;;;;;;;;;;3.10;75.96;95486.75;5097701;28;19948;-80
2023/04/15 02:23:55;;;;;;;;;;;;;;;3.07;75.66;95487.13;5096460;28;19946;-70
2023/04/15 02:26:24;;;;;;;;;;;;;;;3.07;75.45;95494.91;5097225;28;19944;-71
2023/04/15 02:28:51;;;;;;;;;;;;;;;3.04;74.90;95498.69;5095127;28;19942;-72
2023/04/15 02:31:18;;;;;;;;;;;;;;;3.04;74.38;95493.50;5096094;28;19949;-72
2023/04/15 02:33:45;;;;;;;;;;;;;;;3.02;75.21;95495.50;5097106;28;19947;-71
2023/04/15 02:36:12;;;;;;;;;;;;;;;2.99;75.15;95501.84;5097007;28;19961;-71
2023/04/15 02:38:41;;;;;;;;;;;;;;;2.97;75.44;95503.84;5095984;28;19943;-70
2023/04/15 02:41:09;;;;;;;;;;;;;;;2.93;75.57;95496.66;5096069;28;19944;-69
2023/04/15 02:43:36;;;;;;;;;;;;;;;2.90;75.78;95508.22;5096324;28;19945;-68
2023/04/15 02:46:04;;;;;;;;;;;;;;;2.87;75.35;95508.56;5095421;28;20404;-79
2023/04/15 02:48:31;;;;;;;;;;;;;;;2.83;75.54;95499.59;5096327;28;19947;-80
2023/04/15 02:51:14;;;;;;;;;;;;;;;2.81;76.04;95510.16;5096604;28;20403;-78
2023/04/15 02:53:41;;;;;;;;;;;;;;;2.77;75.97;95501.19;5096386;28;19959;-78
2023/04/15 02:56:09;;;;;;;;;;;;;;;2.75;76.32;95504.94;5096391;28;20405;-79
2023/04/15 02:58:36;;;;;;;;;;;;;;;2.72;76.85;95494.97;5095786;28;19949;-80
2023/04/15 03:01:03;;;;;;;;;;;;;;;2.71;76.21;95495.94;5095884;28;19943;-71
2023/04/15 03:03:30;;;;;;;;;;;;;;;2.69;77.19;95497.94;5095787;28;19945;-72
2023/04/15 03:05:57;;;;;;;;;;;;;;;2.68;76.86;95499.72;5094924;28;19963;-71
2023/04/15 03:08:24;;;;;;;;;;;;;;;2.69;77.31;95500.50;5095405;28;19947;-71
2023/04/15 03:10:52;;;;;;;;;;;;;;;2.65;77.62;95500.13;5095662;28;19945;-71
2023/04/15 03:13:20;;;;;;;;;;;;;;;2.63;77.33;95505.47;5095502;28;19956;-71
2023/04/15 03:15:47;;;;;;;;;;;;;;;2.64;76.45;95495.91;5096265;28;19944;-71
2023/04/15 03:18:14;;;;;;;;;;;;;;;2.64;77.11;95501.09;5095586;28;19947;-73
2023/04/15 03:20:41;;;;;;;;;;;;;;;2.63;77.38;95504.69;5095095;28;19943;-69
2023/04/15 03:23:08;;;;;;;;;;;;;;;2.63;78.19;95508.06;5095159;28;19944;-78
2023/04/15 03:25:36;;;;;;;;;;;;;;;2.62;77.83;95510.84;5095108;28;19950;-78
2023/04/15 03:28:03;;;;;;;;;;;;;;;2.60;79.04;95511.06;5095325;28;19938;-79
2023/04/15 03:30:30;;;;;;;;;;;;;;;2.52;78.53;95518.97;5094956;28;19972;-78
2023/04/15 03:32:57;;;;;;;;;;;;;;;2.47;78.17;95515.34;5095174;28;19972;-77
2023/04/15 03:35:25;;;;;;;;;;;;;;;2.43;78.42;95514.91;5094799;28;20436;-78
2023/04/15 03:37:52;;;;;;;;;;;;;;;2.40;78.06;95507.53;5094933;28;19976;-74
2023/04/15 03:40:20;;;;;;;;;;;;;;;2.40;78.09;95510.13;5094736;28;20297;-77
2023/04/15 03:42:47;;;;;;;;;;;;;;;2.39;78.18;95509.34;5095736;28;19955;-77
2023/04/15 03:45:14;;;;;;;;;;;;;;;2.37;78.05;95503.56;5095685;28;19940;-77
2023/04/15 03:47:41;;;;;;;;;;;;;;;2.36;77.94;95499.34;5094484;28;19948;-76
2023/04/15 03:50:09;;;;;;;;;;;;;;;2.35;78.50;95502.13;5095572;28;19948;-76
2023/04/15 03:52:36;;;;;;;;;;;;;;;2.32;78.07;95500.72;5093566;28;19969;-77
2023/04/15 03:55:03;;;;;;;;;;;;;;;2.28;78.24;95493.53;5094505;28;19946;-73
2023/04/15 03:57:30;;;;;;;;;;;;;;;2.24;77.87;95490.50;5095075;28;19939;-70
2023/04/15 03:59:57;;;;;;;;;;;;;;;2.21;77.82;95490.91;5095525;28;19937;-84
2023/04/15 04:02:24;;;;;;;;;;;;;;;2.20;77.72;95490.09;5095535;28;19945;-83
2023/04/15 04:04:51;;;;;;;;;;;;;;;2.17;78.22;95495.66;5096057;28;19949;-84
2023/04/15 04:07:19;;;;;;;;;;;;;;;2.14;78.33;95497.81;5095522;28;19952;-84
2023/04/15 04:09:46;;;;;;;;;;;;;;;2.09;78.49;95493.19;5096459;28;19950;-84
2023/04/15 04:12:13;;;;;;;;;;;;;;;2.07;78.58;95491.78;5094604;28;20404;-85
2023/04/15 04:14:40;;;;;;;;;;;;;;;2.05;78.59;95498.94;5093820;28;19962;-71
2023/04/15 04:17:07;;;;;;;;;;;;;;;2.02;78.78;95495.75;5094639;28;20313;-71
2023/04/15 04:19:34;;;;;;;;;;;;;;;1.99;78.88;95496.09;5094131;28;20406;-71
2023/04/15 04:22:02;;;;;;;;;;;;;;;1.98;79.58;95504.84;5094351;28;19941;-71
2023/04/15 04:24:29;;;;;;;;;;;;;;;1.96;79.31;95499.06;5094964;28;19953;-71
2023/04/15 04:26:56;;;;;;;;;;;;;;;1.94;79.85;95501.03;5093974;28;19953;-70
2023/04/15 04:29:23;;;;;;;;;;;;;;;1.92;79.08;95502.22;5093694;28;19984;-71
2023/04/15 04:31:50;;;;;;;;;;;;;;;1.90;79.60;95510.16;5093940;28;20394;-73
2023/04/15 04:34:17;;;;;;;;;;;;;;;1.89;79.10;95506.00;5094151;28;19963;-85
2023/04/15 04:36:44;;;;;;;;;;;;;;;1.89;79.37;95513.75;5093706;28;20324;-74
2023/04/15 04:39:12;;;;;;;;;;;;;;;1.88;78.37;95513.91;5093673;28;19937;-74
2023/04/15 04:41:39;;;;;;;;;;;;;;;1.88;78.09;95512.13;5093676;28;19945;-75
2023/04/15 04:44:07;;;;;;;;;;;;;;;1.88;78.50;95516.50;5093605;28;19952;-74
2023/04/15 04:46:34;;;;;;;;;;;;;;;1.90;79.15;95523.09;5094360;28;19972;-74
2023/04/15 04:49:01;;;;;;;;;;;;;;;1.91;78.91;95516.13;5093367;28;19949;-73
2023/04/15 04:51:28;;;;;;;;;;;;;;;1.91;79.19;95518.72;5094441;28;19944;-74
2023/04/15 04:53:56;;;;;;;;;;;;;;;1.91;79.63;95523.88;5094167;28;19965;-72
2023/04/15 04:56:23;;;;;;;;;;;;;;;1.91;80.26;95527.28;5093412;28;20312;-71
2023/04/15 04:58:50;;;;;;;;;;;;;;;1.94;79.84;95520.94;5093641;28;19942;-70
2023/04/15 05:01:17;;;;;;;;;;;;;;;1.95;79.78;95522.53;5094268;28;20403;-71
2023/04/15 05:03:44;;;;;;;;;;;;;;;1.95;79.52;95509.59;5093438;28;20252;-70
2023/04/15 05:06:11;;;;;;;;;;;;;;;1.98;80.26;95527.34;5093539;28;19944;-71
2023/04/15 05:08:40;;;;;;;;;;;;;;;1.99;79.23;95508.22;5093467;28;20407;-69
2023/04/15 05:11:07;;;;;;;;;;;;;;;2.11;79.23;95509.31;5093942;28;19950;-71
2023/04/15 05:13:37;;;;;;;;;;;;;;;2.38;78.42;95517.28;5094145;28;19965;-68
2023/04/15 05:16:05;;;;;;;;;;;;;;;2.77;78.91;95513.31;5092220;28;19943;-69
2023/04/15 05:18:32;;;;;;;;;;;;;;;3.19;77.86;95506.31;5093072;28;19944;-68
2023/04/15 05:20:59;;;;;;;;;;;;;;;3.63;76.71;95489.47;5092744;28;19942;-69
2023/04/15 05:23:26;;;;;;;;;;;;;;;4.06;75.14;95489.09;5093123;28;19948;-68
2023/04/15 05:25:53;;;;;;;;;;;;;;;4.56;73.62;95480.84;5092567;28;19953;-68
2023/04/15 05:28:20;;;;;;;;;;;;;;;5.02;72.22;95477.31;5093214;28;19944;-75
2023/04/15 05:30:47;;;;;;;;;;;;;;;5.42;70.73;95466.69;5092795;28;19981;-72
2023/04/15 05:33:15;;;;;;;;;;;;;;;5.67;69.47;95466.75;5093900;28;19955;-72
2023/04/15 05:35:42;;;;;;;;;;;;;;;5.85;68.57;95464.19;5092138;28;20391;-71
2023/04/15 05:38:09;;;;;;;;;;;;;;;6.06;67.95;95464.84;5093563;28;19956;-71
2023/04/15 05:40:36;;;;;;;;;;;;;;;6.17;67.01;95458.94;5093937;28;19951;-71
2023/04/15 05:43:03;;;;;;;;;;;;;;;6.40;67.04;95457.53;5093126;28;19952;-71
2023/04/15 05:45:30;;;;;;;;;;;;;;;6.54;66.01;95458.22;5093557;28;19991;-71
2023/04/15 05:47:58;;;;;;;;;;;;;;;6.60;66.01;95465.94;5093017;28;19946;-71
2023/04/15 05:50:25;;;;;;;;;;;;;;;6.85;65.05;95463.28;5093521;28;20291;-74
2023/04/15 05:52:52;;;;;;;;;;;;;;;6.98;62.81;95451.09;5093758;28;19942;-74
2023/04/15 05:55:19;;;;;;;;;;;;;;;6.87;63.91;95469.06;5092543;28;20331;-75
2023/04/15 05:57:46;;;;;;;;;;;;;;;6.65;63.66;95463.47;5092743;28;19941;-74
2023/04/15 06:00:14;;;;;;;;;;;;;;;6.33;64.55;95468.03;5093091;28;19944;-74
2023/04/15 06:02:41;;;;;;;;;;;;;;;6.06;64.88;95472.66;5092734;28;19943;-74
2023/04/15 06:05:09;;;;;;;;;;;;;;;5.82;65.61;95476.84;5092956;28;19941;-68
2023/04/15 06:07:37;;;;;;;;;;;;;;;5.58;66.15;95484.38;5093294;28;19964;-71
2023/04/15 06:10:04;;;;;;;;;;;;;;;5.38;66.89;95483.72;5093113;28;20443;-72
2023/04/15 06:12:31;;;;;;;;;;;;;;;5.14;67.71;95495.63;5093301;28;19939;-70
2023/04/15 06:14:58;;;;;;;;;;;;;;;4.92;68.79;95495.13;5092272;28;20321;-71
2023/04/15 06:17:26;;;;;;;;;;;;;;;4.81;69.95;95501.75;5092321;28;19956;-71
2023/04/15 06:19:54;;;;;;;;;;;;;;;4.74;70.49;95506.94;5092591;28;19947;-71
2023/04/15 06:22:22;;;;;;;;;;;;;;;4.71;69.97;95498.78;5092749;28;19942;-80
2023/04/15 06:24:50;;;;;;;;;;;;;;;4.67;70.60;95504.38;5092909;28;19957;-71
2023/04/15 06:27:17;;;;;;;;;;;;;;;4.66;70.45;95507.16;5093069;28;20317;-70
2023/04/15 06:29:45;;;;;;;;;;;;;;;4.63;70.85;95508.38;5092466;28;19970;-70
2023/04/15 06:32:12;;;;;;;;;;;;;;;4.61;70.86;95505.19;5092650;28;20312;-71
2023/04/15 06:34:39;;;;;;;;;;;;;;;4.59;71.45;95509.78;5092567;28;19968;-71
2023/04/15 06:37:08;;;;;;;;;;;;;;;4.58;72.00;95518.59;5092774;28;20438;-71
2023/04/15 06:39:35;;;;;;;;;;;;;;;4.58;71.42;95516.00;5096013;28;19942;-70
2023/04/15 06:42:02;;;;;;;;;;;;;;;4.59;71.44;95522.75;5095816;28;20320;-73
2023/04/15 06:44:29;;;;;;;;;;;;;;;4.60;71.82;95514.00;5095671;28;20420;-73
2023/04/15 06:46:56;;;;;;;;;;;;;;;4.65;72.07;95521.97;5095957;28;19944;-73
2023/04/15 06:49:23;;;;;;;;;;;;;;;4.68;71.80;95523.34;5095690;28;19944;-73
2023/04/15 06:51:51;;;;;;;;;;;;;;;4.75;77.87;95544.13;5096240;28;19948;-73
2023/04/15 06:54:18;;;;;;;;;;;;;;;4.92;72.82;95521.09;5095856;28;19945;-73
2023/04/15 06:56:46;;;;;;;;;;;;;;;5.16;71.92;95514.41;5095711;28;20406;-73
2023/04/15 06:59:13;;;;;;;;;;;;;;;5.52;71.32;95508.63;5095849;28;19951;-74
2023/04/15 07:01:40;;;;;;;;;;;;;;;6.03;70.48;95502.53;5095833;28;19944;-74
2023/04/15 07:04:08;;;;;;;;;;;;;;;6.53;69.05;95498.28;5095699;28;19947;-71
2023/04/15 07:06:35;;;;;;;;;;;;;;;6.86;66.73;95484.91;5095910;28;19941;-71
2023/04/15 07:09:04;;;;;;;;;;;;;;;7.10;65.48;95478.03;5095214;28;19945;-71
2023/04/15 07:11:31;;;;;;;;;;;;;;;7.00;64.72;95485.56;5095823;28;19952;-70
2023/04/15 07:13:58;;;;;;;;;;;;;;;6.94;65.02;95482.00;5095773;28;19954;-71
2023/04/15 07:16:25;;;;;;;;;;;;;;;7.03;64.96;95482.50;5095004;28;19960;-71
2023/04/15 07:18:52;;;;;;;;;;;;;;;7.02;64.54;95479.13;5095255;28;19942;-72
2023/04/15 07:21:20;;;;;;;;;;;;;;;6.96;65.25;95479.19;5095633;28;19939;-74
2023/04/15 07:23:47;;;;;;;;;;;;;;;7.02;66.99;95491.34;5095741;28;19944;-73
2023/04/15 07:26:14;;;;;;;;;;;;;;;7.10;65.95;95484.03;5095175;28;19943;-74
2023/04/15 07:28:41;;;;;;;;;;;;;;;7.21;65.97;95487.69;5094922;28;20330;-74
2023/04/15 07:31:08;;;;;;;;;;;;;;;7.32;66.01;95483.56;5094615;28;19973;-74
2023/04/15 07:33:35;;;;;;;;;;;;;;;7.60;66.04;95482.16;5095045;28;20387;-73
2023/04/15 07:36:03;;;;;;;;;;;;;;;7.67;64.75;95478.47;5094663;28;19976;-75
2023/04/15 07:38:30;;;;;;;;;;;;;;;7.69;65.56;95484.25;5094687;28;19948;-73
2023/04/15 07:40:57;;;;;;;;;;;;;;;7.59;65.17;95483.19;5095563;28;19948;-70
2023/04/15 07:43:24;;;;;;;;;;;;;;;7.52;66.65;95494.53;5094920;28;19949;-71
2023/04/15 07:45:52;;;;;;;;;;;;;;;7.46;66.92;95484.97;5094495;28;20396;-70
2023/04/15 07:48:19;;;;;;;;;;;;;;;7.57;67.88;95496.47;5094665;28;19993;-71
2023/04/15 07:50:47;;;;;;;;;;;;;;;7.75;68.30;95498.22;5094603;28;19942;-71
2023/04/15 07:53:14;;;;;;;;;;;;;;;7.90;67.72;95497.81;5095254;28;19938;-70
2023/04/15 07:55:41;;;;;;;;;;;;;;;8.01;67.16;95489.19;5094972;28;19966;-72
2023/04/15 07:58:08;;;;;;;;;;;;;;;8.19;66.65;95490.94;5094279;28;19943;-75
2023/04/15 08:00:37;;;;;;;;;;;;;;;8.40;66.52;95484.34;5094778;28;20422;-74
2023/04/15 08:03:04;;;;;;;;;;;;;;;8.68;66.89;95483.66;5094620;28;20344;-75
2023/04/15 08:05:31;;;;;;;;;;;;;;;9.01;65.59;95481.44;5094330;28;19956;-74
2023/04/15 08:07:59;;;;;;;;;;;;;;;9.35;64.45;95474.53;5094529;28;19947;-74
2023/04/15 08:10:26;;;;;;;;;;;;;;;9.49;63.37;95467.16;5094286;28;19945;-75
2023/04/15 08:12:53;;;;;;;;;;;;;;;9.43;64.68;95474.16;5093913;28;19949;-73
2023/04/15 08:15:21;;;;;;;;;;;;;;;9.38;63.85;95474.06;5093792;28;19938;-72
2023/04/15 08:17:48;;;;;;;;;;;;;;;9.41;64.87;95475.41;5094865;28;19946;-71
2023/04/15 08:20:15;;;;;;;;;;;;;;;9.35;63.96;95466.69;5094529;28;20405;-70
2023/04/15 08:22:42;;;;;;;;;;;;;;;9.21;63.96;95481.06;5093765;28;19951;-71
2023/04/15 08:25:09;;;;;;;;;;;;;;;9.00;65.02;95474.63;5093729;28;20386;-71
2023/04/15 08:27:36;;;;;;;;;;;;;;;8.97;65.81;95482.97;5093642;28;19942;-70
2023/04/15 08:30:04;;;;;;;;;;;;;;;8.96;65.82;95487.38;5093481;28;19970;-71
2023/04/15 08:32:31;;;;;;;;;;;;;;;8.82;66.82;95486.84;5093605;28;19957;-71
2023/04/15 08:34:58;;;;;;;;;;;;;;;8.86;66.82;95492.38;5094343;28;19955;-71
2023/04/15 08:37:25;;;;;;;;;;;;;;;8.86;66.62;95492.38;5093521;28;19965;-71
2023/04/15 08:39:52;;;;;;;;;;;;;;;8.90;66.62;95494.34;5093643;28;19943;-71
2023/04/15 08:42:25;;;;;;;;;;;;;;;9.00;66.56;95490.31;5093511;28;19939;-72
2023/04/15 08:44:54;;;;;;;;;;;;;;;9.06;66.31;95492.81;5093702;28;19971;-71
2023/04/15 08:47:26;;;;;;;;;;;;;;;9.07;65.44;95489.19;5093382;28;19955;-71
2023/04/15 08:49:54;;;;;;;;;;;;;;;9.02;65.24;95491.69;5093476;28;19947;-69
2023/04/15 08:52:21;;;;;;;;;;;;;;;9.00;66.25;95498.16;5094128;28;19948;-71
2023/04/15 08:54:48;;;;;;;;;;;;;;;8.99;65.67;95491.34;5093349;28;19941;-71
2023/04/15 08:57:15;;;;;;;;;;;;;;;8.97;66.07;95490.81;5093184;28;19960;-71
2023/04/15 08:59:43;;;;;;;;;;;;;;;9.01;65.82;95487.50;5093514;28;19953;-71
2023/04/15 09:02:10;;;;;;;;;;;;;;;9.04;65.86;95492.25;5093395;28;19964;-71
2023/04/15 09:04:37;;;;;;;;;;;;;;;9.13;66.12;95496.09;5092975;28;19953;-70
2023/04/15 09:07:05;;;;;;;;;;;;;;;9.22;66.25;95493.09;5093016;28;19940;-71
2023/04/15 09:09:32;;;;;;;;;;;;;;;9.31;65.95;95497.75;5093011;28;19941;-69
2023/04/15 09:12:00;;;;;;;;;;;;;;;9.44;64.62;95495.88;5093230;28;19944;-71
2023/04/15 09:14:28;;;;;;;;;;;;;;;9.54;65.46;95496.06;5092988;28;19939;-72
2023/04/15 09:17:03;;;;;;;;;;;;;;;9.68;64.92;95496.56;5093273;28;19966;-72
2023/04/15 09:19:30;;;;;;;;;;;;;;;9.86;63.95;95493.72;5092970;28;19951;-72
2023/04/15 09:21:57;;;;;;;;;;;;;;;10.03;62.04;95485.09;5093722;28;20304;-72
2023/04/15 09:24:32;;;;;;;;;;;;;;;10.11;62.37;95489.94;5093293;28;19938;-71
2023/04/15 09:26:59;;;;;;;;;;;;;;;10.22;61.01;95488.28;5093730;28;19945;-71
2023/04/15 09:29:27;;;;;;;;;;;;;;;10.36;61.06;95492.97;5092638;28;20429;-71
2023/04/15 09:31:54;;;;;;;;;;;;;;;10.46;58.43;95479.25;5093029;28;19949;-71
2023/04/15 09:34:33;;;;;;;;;;;;;;;10.49;59.54;95499.72;5093031;28;19947;-72
2023/04/15 09:37:01;;;;;;;;;;;;;;;10.48;59.64;95494.75;5092887;28;19965;-71
2023/04/15 09:39:43;;;;;;;;;;;;;;;10.46;59.19;95489.72;5092582;28;19937;-72
2023/04/15 09:42:10;;;;;;;;;;;;;;;10.57;60.20;95501.16;5093374;28;19941;-72
2023/04/15 09:44:37;;;;;;;;;;;;;;;10.76;60.92;95502.47;5092499;28;19943;-72
2023/04/15 09:47:05;;;;;;;;;;;;;;;10.93;59.84;95494.56;5091719;28;19945;-80
2023/04/15 09:49:32;;;;;;;;;;;;;;;11.05;57.95;95489.19;5092915;28;19947;-71
2023/04/15 09:52:00;;;;;;;;;;;;;;;11.13;58.54;95496.66;5092790;28;19931;-71
2023/04/15 09:54:34;;;;;;;;;;;;;;;11.19;59.42;95494.84;5093134;28;19945;-72
2023/04/15 09:57:05;;;;;;;;;;;;;;;11.35;58.21;95491.38;5092373;28;19957;-71
2023/04/15 09:59:32;;;;;;;;;;;;;;;11.54;57.07;95483.16;5093430;28;20281;-71
2023/04/15 10:01:59;;;;;;;;;;;;;;;11.75;58.50;95497.28;5092786;28;19951;-72
2023/04/15 10:04:27;;;;;;;;;;;;;;;11.95;56.41;95484.38;5092589;28;19938;-79
2023/04/15 10:06:54;;;;;;;;;;;;;;;12.15;57.49;95489.00;5092689;28;20302;-72
2023/04/15 10:09:22;;;;;;;;;;;;;;;12.24;56.50;95494.59;5092398;28;19946;-71
2023/04/15 10:11:49;;;;;;;;;;;;;;;12.35;55.67;95492.84;5092269;28;20313;-72
2023/04/15 10:14:17;;;;;;;;;;;;;;;12.47;55.26;95492.66;5096798;28;19950;-73
2023/04/15 10:16:47;;;;;;;;;;;;;;;12.54;54.28;95496.66;5097142;28;19949;-73
2023/04/15 10:19:17;;;;;;;;;;;;;;;12.61;50.80;95499.06;5096867;28;20419;-73
2023/04/15 10:21:45;;;;;;;;;;;;;;;12.63;47.93;95502.22;5096308;28;20388;-72
2023/04/15 10:24:13;;;;;;;;;;;;;;;12.69;50.11;95508.31;5096696;28;19941;-73
2023/04/15 10:26:41;;;;;;;;;;;;;;;12.73;51.40;95509.41;5097301;28;19943;-76
2023/04/15 10:29:09;;;;;;;;;;;;;;;12.83;51.41;95506.81;5096333;28;19940;-76
2023/04/15 10:31:37;;;;;;;;;;;;;;;12.96;49.88;95516.09;5096460;28;19942;-75
2023/04/15 10:34:05;;;;;;;;;;;;;;;13.05;49.24;95508.50;5096198;28;19946;-73
2023/04/15 10:36:32;;;;;;;;;;;;;;;13.08;45.74;95514.06;5096041;28;19964;-75
2023/04/15 10:39:00;;;;;;;;;;;;;;;13.12;48.36;95515.13;5096291;28;20419;-75
2023/04/15 10:41:33;;;;;;;;;;;;;;;13.19;45.53;95513.03;5096315;28;19943;-75
2023/04/15 10:44:01;;;;;;;;;;;;;;;13.19;46.53;95531.47;5096257;28;19944;-75
2023/04/15 10:46:41;;;;;;;;;;;;;;;13.30;42.24;95521.03;5096293;28;19936;-75
2023/04/15 10:49:12;;;;;;;;;;;;;;;13.50;41.92;95521.09;5096496;28;19947;-74
2023/04/15 10:51:41;;;;;;;;;;;;;;;13.64;42.76;95531.91;5096757;28;19941;-74
2023/04/15 10:54:23;;;;;;;;;;;;;;;13.81;42.73;95529.06;5096077;28;19949;-75
2023/04/15 10:57:00;;;;;;;;;;;;;;;13.90;42.06;95537.25;5095712;28;19941;-75
2023/04/15 10:59:50;;;;;;;;;;;;;;;13.97;41.56;95537.81;5095611;28;19947;-73
2023/04/15 11:02:17;;;;;;;;;;;;;;;13.96;41.75;95538.84;5087892;28;19954;-72
2023/04/15 11:04:54;;;;;;;;;;;;;;;13.91;42.55;95542.25;5095861;28;19940;-72
2023/04/15 11:07:40;;;;;;;;;;;;;;;13.76;41.82;95535.13;5095840;28;19964;-72
2023/04/15 11:10:16;;;;;;;;;;;;;;;13.60;40.76;95544.03;5095788;28;20322;-71
2023/04/15 11:12:44;;;;;;;;;;;;;;;13.52;41.71;95547.97;5095386;28;19941;-72
2023/04/15 11:15:30;;;;;;;;;;;;;;;13.57;43.72;95550.59;5096271;28;19946;-72
2023/04/15 11:17:57;;;;;;;;;;;;;;;13.59;40.02;95545.88;5095618;28;20319;-79
2023/04/15 11:20:25;;;;;;;;;;;;;;;13.68;44.45;95559.34;5095833;28;19959;-71
2023/04/15 11:22:53;;;;;;;;;;;;;;;13.76;45.04;95565.94;5095763;28;19945;-70
2023/04/15 11:25:24;;;;;;;;;;;;;;;13.66;39.60;95550.91;5095789;28;19940;-70
2023/04/15 11:27:55;;;;;;;;;;;;;;;13.56;41.10;95562.19;5095739;28;19937;-70
2023/04/15 11:30:26;;;;;;;;;;;;;;;13.48;43.06;95559.25;5094987;28;19974;-71
2023/04/15 11:32:54;;;;;;;;;;;;;;;13.33;41.85;95571.34;5096138;28;19945;-70
2023/04/15 11:35:21;;;;;;;;;;;;;;;13.20;42.74;95569.09;5095588;28;19938;-70
2023/04/15 11:37:49;;;;;;;;;;;;;;;13.06;43.45;95563.53;5095035;28;19967;-80
2023/04/15 11:40:21;;;;;;;;;;;;;;;12.88;42.24;95564.72;5095847;28;19937;-72
2023/04/15 11:43:03;;;;;;;;;;;;;;;12.77;42.71;95577.03;5095834;28;20013;-71
2023/04/15 11:45:30;;;;;;;;;;;;;;;12.69;44.94;95582.75;5095020;28;19943;-72
2023/04/15 11:48:07;;;;;;;;;;;;;;;12.64;43.94;95582.72;5094977;28;19950;-72
2023/04/15 11:50:35;;;;;;;;;;;;;;;12.59;43.04;95585.31;5095072;28;19939;-72
2023/04/15 11:53:03;;;;;;;;;;;;;;;12.60;42.31;95586.91;5095412;28;19938;-70
2023/04/15 11:55:29;;;;;;;;;;;;;;;12.68;41.07;95585.63;5095388;28;19944;-72
2023/04/15 11:58:08;;;;;;;;;;;;;;;12.93;45.02;95582.38;5095154;28;19945;-70
2023/04/15 12:00:34;;;;;;;;;;;;;;;13.51;44.57;95585.88;5095135;28;19936;-70
2023/04/15 12:03:20;;;;;;;;;;;;;;;13.98;41.56;95586.81;5095107;28;19940;-71
2023/04/15 12:06:02;;;;;;;;;;;;;;;14.25;41.59;95597.16;5095125;28;19934;-70
2023/04/15 12:08:47;;;;;;;;;;;;;;;14.10;39.88;95597.13;5095031;28;19941;-71
2023/04/15 12:11:13;;;;;;;;;;;;;;;13.96;41.73;95602.91;5095003;28;20407;-71
2023/04/15 12:13:42;;;;;;;;;;;;;;;13.98;41.98;95600.81;5095590;28;20296;-70
2023/04/15 12:16:08;;;;;;;;;;;;;;;14.16;40.60;95596.88;5095470;28;20390;-70
2023/04/15 12:18:36;;;;;;;;;;;;;;;14.07;42.49;95611.63;5094145;28;20011;-69
2023/04/15 12:21:09;;;;;;;;;;;;;;;14.04;42.15;95608.72;5093676;28;20392;-69
2023/04/15 12:23:39;;;;;;;;;;;;;;;14.21;42.34;95609.28;5094734;28;19942;-69
2023/04/15 12:26:07;;;;;;;;;;;;;;;14.40;42.34;95618.28;5094837;28;20397;-70
2023/04/15 12:28:35;;;;;;;;;;;;;;;14.52;42.90;95622.50;5094694;28;20309;-70
2023/04/15 12:31:08;;;;;;;;;;;;;;;14.50;41.36;95628.03;5093397;28;19976;-71
2023/04/15 12:33:34;;;;;;;;;;;;;;;14.47;41.59;95623.31;5094721;28;19946;-71
2023/04/15 12:36:00;;;;;;;;;;;;;;;14.55;42.26;95621.97;5093821;28;19950;-71
2023/04/15 12:38:26;;;;;;;;;;;;;;;14.68;41.96;95633.88;5093593;28;20436;-71
2023/04/15 12:40:52;;;;;;;;;;;;;;;14.85;41.46;95631.78;5093248;28;19931;-71
2023/04/15 12:43:18;;;;;;;;;;;;;;;14.87;43.33;95637.59;5094139;28;20411;-71
2023/04/15 12:45:44;;;;;;;;;;;;;;;14.71;39.80;95634.16;5094402;28;19947;-71
2023/04/15 12:48:10;;;;;;;;;;;;;;;14.55;40.35;95649.19;5094855;28;20009;-71
2023/04/15 12:50:36;;;;;;;;;;;;;;;14.51;39.36;95639.38;5094280;28;19940;-72
2023/04/15 12:53:02;;;;;;;;;;;;;;;14.41;40.70;95633.03;5094399;28;20299;-76
2023/04/15 12:55:29;;;;;;;;;;;;;;;14.38;40.50;95652.06;5094933;28;20400;-76
2023/04/15 12:57:58;;;;;;;;;;;;;;;14.28;42.41;95653.84;5094107;28;19930;-76
2023/04/15 13:00:24;;;;;;;;;;;;;;;14.08;42.85;95662.50;5094059;28;20308;-75